sensor_id;sensor_type;location;lat;lon;timestamp;P1;durP1;ratioP1;P2;durP2;ratioP2
27746;SDS011;15138;51.012;4.692;2023-02-08T00:01:14;23.08;;;11.82;;
27746;SDS011;15138;51.012;4.692;2023-02-08T00:03:44;23.40;;;12.02;;
27746;SDS011;15138;51.012;4.692;2023-02-08T00:06:12;21.13;;;12.85;;
27746;SDS011;15138;51.012;4.692;2023-02-08T00:08:41;20.40;;;12.25;;
27746;SDS011;15138;51.012;4.692;2023-02-08T00:11:10;20.17;;;11.27;;
27746;SDS011;15138;51.012;4.692;2023-02-08T00:13:39;21.20;;;11.60;;
27746;SDS011;15138;51.012;4.692;2023-02-08T00:16:09;19.00;;;11.13;;
27746;SDS011;15138;51.012;4.692;2023-02-08T00:18:40;20.63;;;11.77;;
27746;SDS011;15138;51.012;4.692;2023-02-08T00:21:09;28.48;;;15.13;;
27746;SDS011;15138;51.012;4.692;2023-02-08T00:23:38;22.20;;;12.57;;
27746;SDS011;15138;51.012;4.692;2023-02-08T00:26:06;24.48;;;12.75;;
27746;SDS011;15138;51.012;4.692;2023-02-08T00:28:34;18.85;;;11.80;;
27746;SDS011;15138;51.012;4.692;2023-02-08T00:31:03;22.50;;;13.25;;
27746;SDS011;15138;51.012;4.692;2023-02-08T00:33:34;21.27;;;11.98;;
27746;SDS011;15138;51.012;4.692;2023-02-08T00:36:03;19.50;;;10.93;;
27746;SDS011;15138;51.012;4.692;2023-02-08T00:38:33;20.80;;;11.38;;
27746;SDS011;15138;51.012;4.692;2023-02-08T00:41:01;21.45;;;12.60;;
27746;SDS011;15138;51.012;4.692;2023-02-08T00:43:30;25.55;;;15.48;;
27746;SDS011;15138;51.012;4.692;2023-02-08T00:45:59;21.05;;;12.32;;
27746;SDS011;15138;51.012;4.692;2023-02-08T00:48:28;23.25;;;13.20;;
27746;SDS011;15138;51.012;4.692;2023-02-08T00:50:59;25.73;;;13.10;;
27746;SDS011;15138;51.012;4.692;2023-02-08T00:53:29;20.55;;;11.63;;
27746;SDS011;15138;51.012;4.692;2023-02-08T00:56:01;19.95;;;10.85;;
27746;SDS011;15138;51.012;4.692;2023-02-08T00:58:29;18.13;;;10.07;;
27746;SDS011;15138;51.012;4.692;2023-02-08T01:00:58;26.65;;;14.38;;
27746;SDS011;15138;51.012;4.692;2023-02-08T01:03:26;22.75;;;13.35;;
27746;SDS011;15138;51.012;4.692;2023-02-08T01:06:00;22.38;;;13.18;;
27746;SDS011;15138;51.012;4.692;2023-02-08T01:08:29;23.35;;;12.73;;
27746;SDS011;15138;51.012;4.692;2023-02-08T01:11:01;24.98;;;14.95;;
27746;SDS011;15138;51.012;4.692;2023-02-08T01:13:30;32.40;;;17.70;;
27746;SDS011;15138;51.012;4.692;2023-02-08T01:16:04;39.03;;;18.88;;
27746;SDS011;15138;51.012;4.692;2023-02-08T01:18:33;36.15;;;18.50;;
27746;SDS011;15138;51.012;4.692;2023-02-08T01:21:04;26.20;;;14.95;;
27746;SDS011;15138;51.012;4.692;2023-02-08T01:23:34;24.63;;;12.85;;
27746;SDS011;15138;51.012;4.692;2023-02-08T01:26:03;24.23;;;14.30;;
27746;SDS011;15138;51.012;4.692;2023-02-08T01:28:32;25.70;;;14.35;;
27746;SDS011;15138;51.012;4.692;2023-02-08T01:31:03;24.95;;;14.77;;
27746;SDS011;15138;51.012;4.692;2023-02-08T01:33:33;30.65;;;15.73;;
27746;SDS011;15138;51.012;4.692;2023-02-08T01:36:04;25.35;;;13.63;;
27746;SDS011;15138;51.012;4.692;2023-02-08T01:38:33;29.88;;;15.13;;
27746;SDS011;15138;51.012;4.692;2023-02-08T01:41:02;36.05;;;17.00;;
27746;SDS011;15138;51.012;4.692;2023-02-08T01:43:33;29.38;;;15.05;;
27746;SDS011;15138;51.012;4.692;2023-02-08T01:46:22;26.10;;;14.32;;
27746;SDS011;15138;51.012;4.692;2023-02-08T01:48:50;25.58;;;13.68;;
27746;SDS011;15138;51.012;4.692;2023-02-08T01:51:22;24.00;;;14.20;;
27746;SDS011;15138;51.012;4.692;2023-02-08T01:53:55;28.48;;;15.27;;
27746;SDS011;15138;51.012;4.692;2023-02-08T01:56:26;26.60;;;14.23;;
27746;SDS011;15138;51.012;4.692;2023-02-08T01:59:01;28.38;;;15.68;;
27746;SDS011;15138;51.012;4.692;2023-02-08T02:01:31;35.45;;;19.15;;
27746;SDS011;15138;51.012;4.692;2023-02-08T02:04:00;37.35;;;19.00;;
27746;SDS011;15138;51.012;4.692;2023-02-08T02:06:33;28.25;;;15.27;;
27746;SDS011;15138;51.012;4.692;2023-02-08T02:09:06;28.30;;;15.82;;
27746;SDS011;15138;51.012;4.692;2023-02-08T02:11:40;31.98;;;18.20;;
27746;SDS011;15138;51.012;4.692;2023-02-08T02:14:09;28.35;;;16.92;;
27746;SDS011;15138;51.012;4.692;2023-02-08T02:16:39;31.65;;;16.30;;
27746;SDS011;15138;51.012;4.692;2023-02-08T02:19:09;21.17;;;12.63;;
27746;SDS011;15138;51.012;4.692;2023-02-08T02:21:50;26.65;;;15.05;;
27746;SDS011;15138;51.012;4.692;2023-02-08T02:24:41;26.25;;;15.18;;
27746;SDS011;15138;51.012;4.692;2023-02-08T02:27:49;24.27;;;13.73;;
27746;SDS011;15138;51.012;4.692;2023-02-08T02:30:46;33.00;;;17.52;;
27746;SDS011;15138;51.012;4.692;2023-02-08T02:33:35;24.80;;;13.77;;
27746;SDS011;15138;51.012;4.692;2023-02-08T02:36:13;22.23;;;13.23;;
27746;SDS011;15138;51.012;4.692;2023-02-08T02:38:52;28.52;;;13.88;;
27746;SDS011;15138;51.012;4.692;2023-02-08T02:41:32;24.20;;;13.15;;
27746;SDS011;15138;51.012;4.692;2023-02-08T02:44:28;32.08;;;17.58;;
27746;SDS011;15138;51.012;4.692;2023-02-08T02:47:03;23.92;;;14.38;;
27746;SDS011;15138;51.012;4.692;2023-02-08T02:49:43;25.08;;;14.70;;
27746;SDS011;15138;51.012;4.692;2023-02-08T02:52:17;24.08;;;14.10;;
27746;SDS011;15138;51.012;4.692;2023-02-08T02:54:49;24.88;;;12.80;;
27746;SDS011;15138;51.012;4.692;2023-02-08T02:57:21;24.20;;;14.85;;
27746;SDS011;15138;51.012;4.692;2023-02-08T02:59:52;30.75;;;16.08;;
27746;SDS011;15138;51.012;4.692;2023-02-08T03:02:21;29.30;;;16.05;;
27746;SDS011;15138;51.012;4.692;2023-02-08T03:04:55;34.00;;;18.60;;
27746;SDS011;15138;51.012;4.692;2023-02-08T03:10:26;25.48;;;13.48;;
27746;SDS011;15138;51.012;4.692;2023-02-08T03:13:08;21.33;;;12.43;;
27746;SDS011;15138;51.012;4.692;2023-02-08T03:15:48;25.00;;;13.52;;
27746;SDS011;15138;51.012;4.692;2023-02-08T03:18:26;23.40;;;13.38;;
27746;SDS011;15138;51.012;4.692;2023-02-08T03:21:05;27.30;;;15.32;;
27746;SDS011;15138;51.012;4.692;2023-02-08T03:26:07;26.25;;;14.48;;
27746;SDS011;15138;51.012;4.692;2023-02-08T03:28:45;27.77;;;16.20;;
27746;SDS011;15138;51.012;4.692;2023-02-08T03:31:22;25.75;;;14.73;;
27746;SDS011;15138;51.012;4.692;2023-02-08T03:33:56;25.98;;;14.50;;
27746;SDS011;15138;51.012;4.692;2023-02-08T03:36:30;26.95;;;14.15;;
27746;SDS011;15138;51.012;4.692;2023-02-08T03:39:03;26.35;;;14.05;;
27746;SDS011;15138;51.012;4.692;2023-02-08T03:41:38;24.02;;;13.15;;
27746;SDS011;15138;51.012;4.692;2023-02-08T03:44:09;27.08;;;14.90;;
27746;SDS011;15138;51.012;4.692;2023-02-08T03:46:43;36.95;;;19.98;;
27746;SDS011;15138;51.012;4.692;2023-02-08T03:49:17;28.08;;;15.48;;
27746;SDS011;15138;51.012;4.692;2023-02-08T03:51:50;24.05;;;13.98;;
27746;SDS011;15138;51.012;4.692;2023-02-08T03:54:21;29.13;;;16.40;;
27746;SDS011;15138;51.012;4.692;2023-02-08T03:56:53;24.23;;;13.25;;
27746;SDS011;15138;51.012;4.692;2023-02-08T03:59:26;28.13;;;15.15;;
27746;SDS011;15138;51.012;4.692;2023-02-08T04:01:59;29.42;;;14.60;;
27746;SDS011;15138;51.012;4.692;2023-02-08T04:04:31;27.73;;;14.85;;
27746;SDS011;15138;51.012;4.692;2023-02-08T04:07:04;25.67;;;13.02;;
27746;SDS011;15138;51.012;4.692;2023-02-08T04:09:32;24.25;;;13.55;;
27746;SDS011;15138;51.012;4.692;2023-02-08T04:12:04;24.13;;;13.85;;
27746;SDS011;15138;51.012;4.692;2023-02-08T04:14:32;30.75;;;16.17;;
27746;SDS011;15138;51.012;4.692;2023-02-08T04:17:01;25.08;;;13.27;;
27746;SDS011;15138;51.012;4.692;2023-02-08T04:19:30;27.70;;;14.70;;
27746;SDS011;15138;51.012;4.692;2023-02-08T04:21:58;23.10;;;12.38;;
27746;SDS011;15138;51.012;4.692;2023-02-08T04:24:28;22.13;;;12.48;;
27746;SDS011;15138;51.012;4.692;2023-02-08T04:26:56;25.10;;;12.70;;
27746;SDS011;15138;51.012;4.692;2023-02-08T04:29:24;20.63;;;12.63;;
27746;SDS011;15138;51.012;4.692;2023-02-08T04:31:52;31.20;;;16.50;;
27746;SDS011;15138;51.012;4.692;2023-02-08T04:34:21;23.73;;;13.80;;
27746;SDS011;15138;51.012;4.692;2023-02-08T04:36:49;21.00;;;11.85;;
27746;SDS011;15138;51.012;4.692;2023-02-08T04:39:17;24.83;;;13.95;;
27746;SDS011;15138;51.012;4.692;2023-02-08T04:41:47;24.08;;;13.18;;
27746;SDS011;15138;51.012;4.692;2023-02-08T04:44:15;20.48;;;12.43;;
27746;SDS011;15138;51.012;4.692;2023-02-08T04:46:43;22.20;;;14.15;;
27746;SDS011;15138;51.012;4.692;2023-02-08T04:49:12;26.77;;;16.10;;
27746;SDS011;15138;51.012;4.692;2023-02-08T04:51:40;22.98;;;13.85;;
27746;SDS011;15138;51.012;4.692;2023-02-08T04:54:09;18.83;;;11.10;;
27746;SDS011;15138;51.012;4.692;2023-02-08T04:56:37;25.08;;;13.32;;
27746;SDS011;15138;51.012;4.692;2023-02-08T04:59:07;19.48;;;13.00;;
27746;SDS011;15138;51.012;4.692;2023-02-08T05:01:35;23.45;;;14.02;;
27746;SDS011;15138;51.012;4.692;2023-02-08T05:04:03;25.13;;;14.15;;
27746;SDS011;15138;51.012;4.692;2023-02-08T05:06:31;21.23;;;13.30;;
27746;SDS011;15138;51.012;4.692;2023-02-08T05:09:00;18.42;;;12.32;;
27746;SDS011;15138;51.012;4.692;2023-02-08T05:11:28;23.25;;;13.35;;
27746;SDS011;15138;51.012;4.692;2023-02-08T05:13:56;24.67;;;13.32;;
27746;SDS011;15138;51.012;4.692;2023-02-08T05:16:26;28.73;;;15.75;;
27746;SDS011;15138;51.012;4.692;2023-02-08T05:18:54;22.33;;;13.38;;
27746;SDS011;15138;51.012;4.692;2023-02-08T05:21:23;22.20;;;13.75;;
27746;SDS011;15138;51.012;4.692;2023-02-08T05:23:51;24.00;;;15.23;;
27746;SDS011;15138;51.012;4.692;2023-02-08T05:26:20;24.63;;;14.68;;
27746;SDS011;15138;51.012;4.692;2023-02-08T05:28:48;28.65;;;16.73;;
27746;SDS011;15138;51.012;4.692;2023-02-08T05:31:17;25.23;;;14.75;;
27746;SDS011;15138;51.012;4.692;2023-02-08T05:33:49;32.67;;;17.60;;
27746;SDS011;15138;51.012;4.692;2023-02-08T05:36:18;20.58;;;12.50;;
27746;SDS011;15138;51.012;4.692;2023-02-08T05:38:48;24.00;;;13.43;;
27746;SDS011;15138;51.012;4.692;2023-02-08T05:41:18;29.23;;;18.10;;
27746;SDS011;15138;51.012;4.692;2023-02-08T05:43:47;32.05;;;17.90;;
27746;SDS011;15138;51.012;4.692;2023-02-08T05:46:15;22.63;;;12.98;;
27746;SDS011;15138;51.012;4.692;2023-02-08T05:48:51;27.90;;;15.63;;
27746;SDS011;15138;51.012;4.692;2023-02-08T05:51:20;26.67;;;15.35;;
27746;SDS011;15138;51.012;4.692;2023-02-08T05:53:48;18.40;;;11.57;;
27746;SDS011;15138;51.012;4.692;2023-02-08T05:56:16;33.95;;;18.25;;
27746;SDS011;15138;51.012;4.692;2023-02-08T05:58:44;31.17;;;15.43;;
27746;SDS011;15138;51.012;4.692;2023-02-08T06:01:13;25.52;;;15.30;;
27746;SDS011;15138;51.012;4.692;2023-02-08T06:03:41;21.05;;;12.38;;
27746;SDS011;15138;51.012;4.692;2023-02-08T06:06:11;22.83;;;13.30;;
27746;SDS011;15138;51.012;4.692;2023-02-08T06:08:40;23.52;;;14.40;;
27746;SDS011;15138;51.012;4.692;2023-02-08T06:11:08;28.00;;;14.68;;
27746;SDS011;15138;51.012;4.692;2023-02-08T06:13:36;32.83;;;16.65;;
27746;SDS011;15138;51.012;4.692;2023-02-08T06:16:05;32.63;;;18.08;;
27746;SDS011;15138;51.012;4.692;2023-02-08T06:18:34;23.60;;;14.10;;
27746;SDS011;15138;51.012;4.692;2023-02-08T06:21:03;23.20;;;13.10;;
27746;SDS011;15138;51.012;4.692;2023-02-08T06:23:33;25.35;;;15.65;;
27746;SDS011;15138;51.012;4.692;2023-02-08T06:26:02;22.40;;;13.73;;
27746;SDS011;15138;51.012;4.692;2023-02-08T06:28:30;23.02;;;13.65;;
27746;SDS011;15138;51.012;4.692;2023-02-08T06:30:58;24.30;;;14.10;;
27746;SDS011;15138;51.012;4.692;2023-02-08T06:33:26;24.77;;;15.63;;
27746;SDS011;15138;51.012;4.692;2023-02-08T06:35:55;25.02;;;15.23;;
27746;SDS011;15138;51.012;4.692;2023-02-08T06:38:23;22.25;;;13.48;;
27746;SDS011;15138;51.012;4.692;2023-02-08T06:40:54;25.45;;;13.82;;
27746;SDS011;15138;51.012;4.692;2023-02-08T06:43:25;31.10;;;18.63;;
27746;SDS011;15138;51.012;4.692;2023-02-08T06:45:53;25.73;;;15.52;;
27746;SDS011;15138;51.012;4.692;2023-02-08T06:48:22;27.10;;;16.25;;
27746;SDS011;15138;51.012;4.692;2023-02-08T06:50:50;25.70;;;15.60;;
27746;SDS011;15138;51.012;4.692;2023-02-08T06:53:19;22.15;;;13.90;;
27746;SDS011;15138;51.012;4.692;2023-02-08T06:55:47;28.63;;;16.70;;
27746;SDS011;15138;51.012;4.692;2023-02-08T06:58:29;25.27;;;15.23;;
27746;SDS011;15138;51.012;4.692;2023-02-08T07:00:57;24.75;;;14.02;;
27746;SDS011;15138;51.012;4.692;2023-02-08T07:03:26;20.77;;;11.38;;
27746;SDS011;15138;51.012;4.692;2023-02-08T07:05:54;26.63;;;13.82;;
27746;SDS011;15138;51.012;4.692;2023-02-08T07:08:31;22.58;;;12.68;;
27746;SDS011;15138;51.012;4.692;2023-02-08T07:11:04;19.77;;;12.25;;
27746;SDS011;15138;51.012;4.692;2023-02-08T07:13:35;19.77;;;12.50;;
27746;SDS011;15138;51.012;4.692;2023-02-08T07:16:05;22.85;;;13.45;;
27746;SDS011;15138;51.012;4.692;2023-02-08T07:18:34;31.80;;;17.08;;
27746;SDS011;15138;51.012;4.692;2023-02-08T07:21:03;32.67;;;18.75;;
27746;SDS011;15138;51.012;4.692;2023-02-08T07:23:31;21.38;;;13.50;;
27746;SDS011;15138;51.012;4.692;2023-02-08T07:26:01;31.92;;;15.40;;
27746;SDS011;15138;51.012;4.692;2023-02-08T07:28:31;25.88;;;15.48;;
27746;SDS011;15138;51.012;4.692;2023-02-08T07:31:04;31.83;;;18.25;;
27746;SDS011;15138;51.012;4.692;2023-02-08T07:33:33;28.80;;;17.13;;
27746;SDS011;15138;51.012;4.692;2023-02-08T07:36:02;30.30;;;16.15;;
27746;SDS011;15138;51.012;4.692;2023-02-08T07:38:30;28.83;;;15.98;;
27746;SDS011;15138;51.012;4.692;2023-02-08T07:41:00;29.23;;;17.05;;
27746;SDS011;15138;51.012;4.692;2023-02-08T07:43:29;25.75;;;15.75;;
27746;SDS011;15138;51.012;4.692;2023-02-08T07:45:57;30.48;;;17.77;;
27746;SDS011;15138;51.012;4.692;2023-02-08T07:48:27;26.95;;;15.63;;
27746;SDS011;15138;51.012;4.692;2023-02-08T07:50:55;33.58;;;17.98;;
27746;SDS011;15138;51.012;4.692;2023-02-08T07:53:23;29.23;;;16.88;;
27746;SDS011;15138;51.012;4.692;2023-02-08T07:55:51;28.90;;;17.65;;
27746;SDS011;15138;51.012;4.692;2023-02-08T07:58:20;28.73;;;17.35;;
27746;SDS011;15138;51.012;4.692;2023-02-08T08:00:48;32.67;;;19.13;;
27746;SDS011;15138;51.012;4.692;2023-02-08T08:03:17;35.22;;;18.35;;
27746;SDS011;15138;51.012;4.692;2023-02-08T08:05:47;35.63;;;18.13;;
27746;SDS011;15138;51.012;4.692;2023-02-08T08:08:19;32.00;;;17.02;;
27746;SDS011;15138;51.012;4.692;2023-02-08T08:10:48;32.00;;;17.33;;
27746;SDS011;15138;51.012;4.692;2023-02-08T08:13:16;31.23;;;18.30;;
27746;SDS011;15138;51.012;4.692;2023-02-08T08:15:45;35.95;;;17.45;;
27746;SDS011;15138;51.012;4.692;2023-02-08T08:18:14;29.65;;;17.55;;
27746;SDS011;15138;51.012;4.692;2023-02-08T08:20:42;31.58;;;17.27;;
27746;SDS011;15138;51.012;4.692;2023-02-08T08:23:12;33.70;;;17.05;;
27746;SDS011;15138;51.012;4.692;2023-02-08T08:25:41;29.05;;;16.92;;
27746;SDS011;15138;51.012;4.692;2023-02-08T08:28:10;31.92;;;17.45;;
27746;SDS011;15138;51.012;4.692;2023-02-08T08:30:41;36.03;;;18.77;;
27746;SDS011;15138;51.012;4.692;2023-02-08T08:33:10;34.47;;;18.88;;
27746;SDS011;15138;51.012;4.692;2023-02-08T08:35:39;42.90;;;19.65;;
27746;SDS011;15138;51.012;4.692;2023-02-08T08:38:09;47.58;;;22.15;;
27746;SDS011;15138;51.012;4.692;2023-02-08T08:40:38;46.55;;;23.95;;
27746;SDS011;15138;51.012;4.692;2023-02-08T08:43:07;46.88;;;23.92;;
27746;SDS011;15138;51.012;4.692;2023-02-08T08:45:35;40.05;;;20.15;;
27746;SDS011;15138;51.012;4.692;2023-02-08T08:48:04;38.75;;;20.33;;
27746;SDS011;15138;51.012;4.692;2023-02-08T08:50:34;36.97;;;19.58;;
27746;SDS011;15138;51.012;4.692;2023-02-08T08:53:04;34.88;;;18.05;;
27746;SDS011;15138;51.012;4.692;2023-02-08T08:55:33;29.88;;;17.83;;
27746;SDS011;15138;51.012;4.692;2023-02-08T08:58:03;30.15;;;16.60;;
27746;SDS011;15138;51.012;4.692;2023-02-08T09:00:31;30.25;;;16.67;;
27746;SDS011;15138;51.012;4.692;2023-02-08T09:02:59;29.80;;;16.67;;
27746;SDS011;15138;51.012;4.692;2023-02-08T09:05:28;32.10;;;17.73;;
27746;SDS011;15138;51.012;4.692;2023-02-08T09:07:56;30.55;;;17.40;;
27746;SDS011;15138;51.012;4.692;2023-02-08T09:10:26;29.67;;;16.10;;
27746;SDS011;15138;51.012;4.692;2023-02-08T09:12:55;29.92;;;15.93;;
27746;SDS011;15138;51.012;4.692;2023-02-08T09:15:25;29.20;;;16.30;;
27746;SDS011;15138;51.012;4.692;2023-02-08T09:17:54;31.45;;;16.17;;
27746;SDS011;15138;51.012;4.692;2023-02-08T09:20:25;26.05;;;14.68;;
27746;SDS011;15138;51.012;4.692;2023-02-08T09:22:54;27.92;;;15.48;;
27746;SDS011;15138;51.012;4.692;2023-02-08T09:25:22;28.70;;;15.45;;
27746;SDS011;15138;51.012;4.692;2023-02-08T09:27:51;26.75;;;14.88;;
27746;SDS011;15138;51.012;4.692;2023-02-08T09:30:19;22.92;;;14.32;;
27746;SDS011;15138;51.012;4.692;2023-02-08T09:32:49;27.00;;;13.57;;
27746;SDS011;15138;51.012;4.692;2023-02-08T09:35:17;27.13;;;13.57;;
27746;SDS011;15138;51.012;4.692;2023-02-08T09:37:46;19.75;;;12.05;;
27746;SDS011;15138;51.012;4.692;2023-02-08T09:40:20;21.73;;;11.80;;
27746;SDS011;15138;51.012;4.692;2023-02-08T09:42:51;20.95;;;11.07;;
27746;SDS011;15138;51.012;4.692;2023-02-08T09:45:27;23.35;;;10.80;;
27746;SDS011;15138;51.012;4.692;2023-02-08T09:48:02;20.17;;;11.27;;
27746;SDS011;15138;51.012;4.692;2023-02-08T09:50:31;19.25;;;10.70;;
27746;SDS011;15138;51.012;4.692;2023-02-08T09:53:02;18.23;;;10.30;;
27746;SDS011;15138;51.012;4.692;2023-02-08T09:55:34;21.00;;;10.50;;
27746;SDS011;15138;51.012;4.692;2023-02-08T09:58:06;17.52;;;9.75;;
27746;SDS011;15138;51.012;4.692;2023-02-08T10:00:41;16.95;;;10.13;;
27746;SDS011;15138;51.012;4.692;2023-02-08T10:03:18;21.33;;;9.82;;
27746;SDS011;15138;51.012;4.692;2023-02-08T10:05:48;14.60;;;9.10;;
27746;SDS011;15138;51.012;4.692;2023-02-08T10:08:16;16.38;;;9.63;;
27746;SDS011;15138;51.012;4.692;2023-02-08T10:10:47;15.63;;;9.85;;
27746;SDS011;15138;51.012;4.692;2023-02-08T10:13:22;17.05;;;8.80;;
27746;SDS011;15138;51.012;4.692;2023-02-08T10:16:07;21.10;;;9.95;;
27746;SDS011;15138;51.012;4.692;2023-02-08T10:18:43;16.25;;;9.35;;
27746;SDS011;15138;51.012;4.692;2023-02-08T10:24:11;18.90;;;8.93;;
27746;SDS011;15138;51.012;4.692;2023-02-08T10:26:43;14.00;;;8.35;;
27746;SDS011;15138;51.012;4.692;2023-02-08T10:32:03;11.82;;;7.28;;
27746;SDS011;15138;51.012;4.692;2023-02-08T10:34:36;15.57;;;7.22;;
27746;SDS011;15138;51.012;4.692;2023-02-08T10:37:10;12.95;;;7.47;;
27746;SDS011;15138;51.012;4.692;2023-02-08T10:39:40;12.73;;;6.88;;
27746;SDS011;15138;51.012;4.692;2023-02-08T10:42:11;12.93;;;6.88;;
27746;SDS011;15138;51.012;4.692;2023-02-08T10:44:46;14.77;;;7.13;;
27746;SDS011;15138;51.012;4.692;2023-02-08T10:47:19;11.73;;;7.10;;
27746;SDS011;15138;51.012;4.692;2023-02-08T10:49:52;11.52;;;7.32;;
27746;SDS011;15138;51.012;4.692;2023-02-08T10:52:24;13.95;;;7.45;;
27746;SDS011;15138;51.012;4.692;2023-02-08T10:54:53;12.68;;;7.32;;
27746;SDS011;15138;51.012;4.692;2023-02-08T10:57:22;13.07;;;6.53;;
27746;SDS011;15138;51.012;4.692;2023-02-08T10:59:52;15.88;;;8.10;;
27746;SDS011;15138;51.012;4.692;2023-02-08T11:02:22;12.00;;;6.80;;
27746;SDS011;15138;51.012;4.692;2023-02-08T11:05:00;12.55;;;7.45;;
27746;SDS011;15138;51.012;4.692;2023-02-08T11:07:30;13.38;;;7.00;;
27746;SDS011;15138;51.012;4.692;2023-02-08T11:10:12;15.75;;;6.40;;
27746;SDS011;15138;51.012;4.692;2023-02-08T11:12:41;11.18;;;6.72;;
27746;SDS011;15138;51.012;4.692;2023-02-08T11:15:20;12.00;;;7.20;;
27746;SDS011;15138;51.012;4.692;2023-02-08T11:17:52;13.30;;;6.35;;
27746;SDS011;15138;51.012;4.692;2023-02-08T11:20:24;9.15;;;6.00;;
27746;SDS011;15138;51.012;4.692;2023-02-08T11:22:53;13.07;;;5.90;;
27746;SDS011;15138;51.012;4.692;2023-02-08T11:25:29;12.00;;;6.13;;
27746;SDS011;15138;51.012;4.692;2023-02-08T11:28:03;9.80;;;5.03;;
27746;SDS011;15138;51.012;4.692;2023-02-08T11:30:32;8.23;;;4.70;;
27746;SDS011;15138;51.012;4.692;2023-02-08T11:33:17;6.75;;;4.20;;
27746;SDS011;15138;51.012;4.692;2023-02-08T11:35:57;7.43;;;4.30;;
27746;SDS011;15138;51.012;4.692;2023-02-08T11:38:28;6.70;;;4.43;;
27746;SDS011;15138;51.012;4.692;2023-02-08T11:40:58;8.98;;;4.57;;
27746;SDS011;15138;51.012;4.692;2023-02-08T11:43:29;6.30;;;4.00;;
27746;SDS011;15138;51.012;4.692;2023-02-08T11:45:58;5.72;;;3.17;;
27746;SDS011;15138;51.012;4.692;2023-02-08T11:48:32;6.75;;;3.40;;
27746;SDS011;15138;51.012;4.692;2023-02-08T11:51:09;5.57;;;3.50;;
27746;SDS011;15138;51.012;4.692;2023-02-08T11:53:44;7.00;;;3.55;;
27746;SDS011;15138;51.012;4.692;2023-02-08T11:56:15;5.45;;;3.78;;
27746;SDS011;15138;51.012;4.692;2023-02-08T11:59:08;9.43;;;3.70;;
27746;SDS011;15138;51.012;4.692;2023-02-08T12:01:45;5.25;;;3.55;;
27746;SDS011;15138;51.012;4.692;2023-02-08T12:04:14;7.63;;;3.78;;
27746;SDS011;15138;51.012;4.692;2023-02-08T12:12:54;8.43;;;3.80;;
27746;SDS011;15138;51.012;4.692;2023-02-08T12:15:39;6.05;;;3.70;;
27746;SDS011;15138;51.012;4.692;2023-02-08T12:18:27;6.63;;;3.35;;
27746;SDS011;15138;51.012;4.692;2023-02-08T12:21:16;6.88;;;3.50;;
27746;SDS011;15138;51.012;4.692;2023-02-08T12:23:48;5.82;;;3.35;;
27746;SDS011;15138;51.012;4.692;2023-02-08T12:26:24;5.18;;;3.50;;
27746;SDS011;15138;51.012;4.692;2023-02-08T12:29:13;5.55;;;3.33;;
27746;SDS011;15138;51.012;4.692;2023-02-08T12:32:21;5.97;;;3.30;;
27746;SDS011;15138;51.012;4.692;2023-02-08T12:35:03;5.05;;;3.28;;
27746;SDS011;15138;51.012;4.692;2023-02-08T12:38:06;6.70;;;3.60;;
27746;SDS011;15138;51.012;4.692;2023-02-08T12:40:57;9.05;;;4.32;;
27746;SDS011;15138;51.012;4.692;2023-02-08T12:43:43;7.35;;;3.60;;
27746;SDS011;15138;51.012;4.692;2023-02-08T12:46:20;5.32;;;3.53;;
27746;SDS011;15138;51.012;4.692;2023-02-08T12:49:06;10.50;;;4.18;;
27746;SDS011;15138;51.012;4.692;2023-02-08T12:51:50;5.50;;;3.45;;
27746;SDS011;15138;51.012;4.692;2023-02-08T12:54:29;6.57;;;3.60;;
27746;SDS011;15138;51.012;4.692;2023-02-08T12:57:01;6.35;;;3.28;;
27746;SDS011;15138;51.012;4.692;2023-02-08T12:59:34;6.72;;;3.35;;
27746;SDS011;15138;51.012;4.692;2023-02-08T13:02:10;4.32;;;2.92;;
27746;SDS011;15138;51.012;4.692;2023-02-08T13:04:44;4.53;;;2.95;;
27746;SDS011;15138;51.012;4.692;2023-02-08T13:07:15;5.75;;;3.10;;
27746;SDS011;15138;51.012;4.692;2023-02-08T13:09:49;4.85;;;2.80;;
27746;SDS011;15138;51.012;4.692;2023-02-08T13:12:24;4.88;;;2.80;;
27746;SDS011;15138;51.012;4.692;2023-02-08T13:14:59;4.88;;;3.35;;
27746;SDS011;15138;51.012;4.692;2023-02-08T13:17:40;6.63;;;3.05;;
27746;SDS011;15138;51.012;4.692;2023-02-08T13:23:05;5.15;;;3.05;;
27746;SDS011;15138;51.012;4.692;2023-02-08T13:25:42;4.82;;;2.88;;
27746;SDS011;15138;51.012;4.692;2023-02-08T13:28:15;6.00;;;3.10;;
27746;SDS011;15138;51.012;4.692;2023-02-08T13:30:47;7.47;;;3.23;;
27746;SDS011;15138;51.012;4.692;2023-02-08T13:33:31;5.38;;;3.55;;
27746;SDS011;15138;51.012;4.692;2023-02-08T13:36:03;6.40;;;3.00;;
27746;SDS011;15138;51.012;4.692;2023-02-08T13:38:32;5.78;;;3.30;;
27746;SDS011;15138;51.012;4.692;2023-02-08T13:41:03;7.03;;;3.22;;
27746;SDS011;15138;51.012;4.692;2023-02-08T13:43:35;5.38;;;2.97;;
27746;SDS011;15138;51.012;4.692;2023-02-08T13:46:08;5.55;;;3.53;;
27746;SDS011;15138;51.012;4.692;2023-02-08T13:48:45;5.10;;;3.40;;
27746;SDS011;15138;51.012;4.692;2023-02-08T13:54:17;5.45;;;3.35;;
27746;SDS011;15138;51.012;4.692;2023-02-08T13:56:46;5.13;;;3.00;;
27746;SDS011;15138;51.012;4.692;2023-02-08T13:59:34;5.40;;;2.85;;
27746;SDS011;15138;51.012;4.692;2023-02-08T14:02:22;5.82;;;2.80;;
27746;SDS011;15138;51.012;4.692;2023-02-08T14:08:02;3.88;;;2.90;;
27746;SDS011;15138;51.012;4.692;2023-02-08T14:10:32;6.15;;;3.20;;
27746;SDS011;15138;51.012;4.692;2023-02-08T14:13:06;4.47;;;3.00;;
27746;SDS011;15138;51.012;4.692;2023-02-08T14:18:52;7.43;;;3.05;;
27746;SDS011;15138;51.012;4.692;2023-02-08T14:21:26;4.45;;;2.60;;
27746;SDS011;15138;51.012;4.692;2023-02-08T14:24:00;4.32;;;2.70;;
27746;SDS011;15138;51.012;4.692;2023-02-08T14:26:31;4.15;;;2.65;;
27746;SDS011;15138;51.012;4.692;2023-02-08T14:29:01;5.55;;;3.03;;
27746;SDS011;15138;51.012;4.692;2023-02-08T14:31:37;5.50;;;3.35;;
27746;SDS011;15138;51.012;4.692;2023-02-08T14:34:19;5.75;;;3.30;;
27746;SDS011;15138;51.012;4.692;2023-02-08T14:37:03;4.78;;;2.90;;
27746;SDS011;15138;51.012;4.692;2023-02-08T14:43:26;5.68;;;3.55;;
27746;SDS011;15138;51.012;4.692;2023-02-08T14:45:58;5.22;;;3.85;;
27746;SDS011;15138;51.012;4.692;2023-02-08T14:49:07;4.65;;;3.17;;
27746;SDS011;15138;51.012;4.692;2023-02-08T14:51:39;7.75;;;3.90;;
27746;SDS011;15138;51.012;4.692;2023-02-08T14:54:16;7.85;;;3.35;;
27746;SDS011;15138;51.012;4.692;2023-02-08T14:56:52;5.90;;;3.40;;
27746;SDS011;15138;51.012;4.692;2023-02-08T14:59:25;6.72;;;3.58;;
27746;SDS011;15138;51.012;4.692;2023-02-08T15:01:54;5.97;;;4.43;;
27746;SDS011;15138;51.012;4.692;2023-02-08T15:04:27;9.55;;;3.65;;
27746;SDS011;15138;51.012;4.692;2023-02-08T15:07:04;7.35;;;3.50;;
27746;SDS011;15138;51.012;4.692;2023-02-08T15:09:43;5.30;;;3.40;;
27746;SDS011;15138;51.012;4.692;2023-02-08T15:12:13;6.35;;;4.35;;
27746;SDS011;15138;51.012;4.692;2023-02-08T15:14:46;7.35;;;4.30;;
27746;SDS011;15138;51.012;4.692;2023-02-08T15:17:19;5.82;;;3.72;;
27746;SDS011;15138;51.012;4.692;2023-02-08T15:19:55;7.15;;;4.20;;
27746;SDS011;15138;51.012;4.692;2023-02-08T15:22:31;6.57;;;4.38;;
27746;SDS011;15138;51.012;4.692;2023-02-08T15:25:09;5.97;;;3.88;;
27746;SDS011;15138;51.012;4.692;2023-02-08T15:27:48;6.03;;;3.80;;
27746;SDS011;15138;51.012;4.692;2023-02-08T15:30:24;7.65;;;3.55;;
27746;SDS011;15138;51.012;4.692;2023-02-08T15:32:55;7.05;;;3.58;;